createdAt,value
2023-01-11T00:00:17.444Z,27.7
2023-01-11T00:01:24.504Z,27.8
2023-01-11T00:02:31.604Z,27.9
2023-01-11T00:03:38.796Z,28.2
2023-01-11T00:04:45.514Z,28.1
2023-01-11T00:05:52.737Z,28.5
2023-01-11T00:06:59.807Z,26.3
2023-01-11T00:08:06.413Z,25.5
2023-01-11T00:09:13.358Z,23.6
2023-01-11T00:10:20.492Z,24.3
2023-01-11T00:11:27.137Z,25.5
2023-01-11T00:12:34.297Z,24.5
2023-01-11T00:13:41.417Z,23.2
2023-01-11T00:14:48.032Z,22.2
2023-01-11T00:15:54.781Z,22
2023-01-11T00:17:01.977Z,22.8
2023-01-11T00:18:08.803Z,23.2
2023-01-11T00:19:15.950Z,23.4
2023-01-11T00:20:23.044Z,24.7
2023-01-11T00:21:29.676Z,27.9
2023-01-11T00:22:36.365Z,26.4
2023-01-11T00:23:43.522Z,25.5
2023-01-11T00:24:50.810Z,25.2
2023-01-11T00:25:57.799Z,24.8
2023-01-11T00:27:09.977Z,23.5
2023-01-11T00:28:16.982Z,22.6
2023-01-11T00:29:24.203Z,22
2023-01-11T00:30:31.262Z,21.9
2023-01-11T00:31:38.467Z,22.8
2023-01-11T00:32:45.292Z,22.5
2023-01-11T00:33:52.233Z,23.1
2023-01-11T00:34:59.425Z,25.6
2023-01-11T00:36:06.525Z,26
2023-01-11T00:37:13.521Z,25.1
2023-01-11T00:38:20.663Z,24.3
2023-01-11T00:39:32.874Z,25.2
2023-01-11T00:40:40.066Z,24
2023-01-11T00:41:47.185Z,22.1
2023-01-11T00:42:59.515Z,22.8
2023-01-11T00:44:11.436Z,22.2
2023-01-11T00:45:23.680Z,23.6
2023-01-11T00:46:35.978Z,22.6
2023-01-11T00:47:47.776Z,23.9
2023-01-11T00:48:59.946Z,23.8
2023-01-11T00:50:07.238Z,23.1
2023-01-11T00:51:14.100Z,24.4
2023-01-11T00:52:21.267Z,24.9
2023-01-11T00:53:28.346Z,25.5
2023-01-11T00:54:35.136Z,24.4
2023-01-11T00:55:42.400Z,25.4
2023-01-11T00:56:49.367Z,25.3
2023-01-11T00:57:55.981Z,23.8
2023-01-11T00:59:03.154Z,23.6
2023-01-11T01:00:10.111Z,23.1
2023-01-11T01:01:17.527Z,22.4
2023-01-11T01:02:24.504Z,21.4
2023-01-11T01:03:31.594Z,21.1
2023-01-11T01:04:38.764Z,21.5
2023-01-11T01:05:45.897Z,22.2
2023-01-11T01:06:53.002Z,21.2
2023-01-11T01:07:59.902Z,20.4
2023-01-11T01:09:06.839Z,21.1
2023-01-11T01:10:13.833Z,20.9
2023-01-11T01:11:20.918Z,19.8
2023-01-11T01:12:28.124Z,21.7
2023-01-11T01:13:39.895Z,20.8
2023-01-11T01:14:52.148Z,21.3
2023-01-11T01:15:59.492Z,21.2
2023-01-11T01:17:06.369Z,23.9
2023-01-11T01:18:13.345Z,21.6
2023-01-11T01:19:20.557Z,22
2023-01-11T01:20:27.121Z,21.8
2023-01-11T01:21:33.836Z,22.9
2023-01-11T01:22:40.937Z,22.2
2023-01-11T01:23:48.071Z,23.4
2023-01-11T01:24:57.830Z,23.3
2023-01-11T01:26:04.968Z,21.9
2023-01-11T01:27:11.931Z,22
2023-01-11T01:28:19.115Z,21.7
2023-01-11T01:29:26.182Z,23.6
2023-01-11T01:30:33.376Z,21.9
2023-01-11T01:31:40.456Z,20.8
2023-01-11T01:32:47.649Z,20.3
2023-01-11T01:33:54.803Z,21.2
2023-01-11T01:35:01.794Z,20.5
2023-01-11T01:36:08.911Z,20.3
2023-01-11T01:37:16.050Z,19
2023-01-11T01:38:23.159Z,21
2023-01-11T01:39:30.301Z,20.3
2023-01-11T01:40:37.435Z,21.1
2023-01-11T01:41:44.168Z,21.4
2023-01-11T01:42:51.250Z,20.7
2023-01-11T01:43:58.433Z,20.1
2023-01-11T01:45:05.096Z,20.8
2023-01-11T01:46:20.212Z,21.5
2023-01-11T01:47:27.315Z,20.1
2023-01-11T01:48:39.631Z,22.3
2023-01-11T01:49:46.773Z,23
2023-01-11T01:50:53.867Z,22
2023-01-11T01:52:00.583Z,21.7
2023-01-11T01:53:07.628Z,23.3
2023-01-11T01:54:14.672Z,23.2
2023-01-11T01:55:21.767Z,21.2
2023-01-11T01:56:28.869Z,21.3
2023-01-11T01:57:36.054Z,23.3
2023-01-11T01:58:43.231Z,22.7
2023-01-11T01:59:50.335Z,24.6
2023-01-11T02:00:57.488Z,26.3
2023-01-11T02:02:04.706Z,32
2023-01-11T02:03:11.652Z,35.9
2023-01-11T02:04:21.786Z,36.7
2023-01-11T02:05:29.186Z,37.2
2023-01-11T02:06:36.220Z,42.2
2023-01-11T02:07:43.214Z,42.9
2023-01-11T02:08:50.379Z,44.3
2023-01-11T02:10:00.051Z,42.8
2023-01-11T02:11:15.199Z,41.5
2023-01-11T02:12:30.097Z,37.8
2023-01-11T02:13:37.140Z,35.5
2023-01-11T02:14:43.847Z,36
2023-01-11T02:15:50.951Z,34.6
2023-01-11T02:16:57.987Z,34.9
2023-01-11T02:18:05.053Z,34.1
2023-01-11T02:19:14.623Z,34.3
2023-01-11T02:20:24.347Z,34.5
2023-01-11T02:21:41.830Z,31.4
2023-01-11T02:22:57.019Z,31.3
2023-01-11T02:24:09.150Z,30.1
2023-01-11T02:25:26.463Z,30.1
2023-01-11T02:26:38.747Z,28.5
2023-01-11T02:27:56.150Z,30.4
2023-01-11T02:29:13.284Z,30.9
2023-01-11T02:30:30.606Z,29.8
2023-01-11T02:31:42.766Z,30.3
2023-01-11T02:32:57.606Z,29
2023-01-11T02:34:14.756Z,26.8
2023-01-11T02:35:24.491Z,27.6
2023-01-11T02:36:34.148Z,28.4
2023-01-11T02:37:40.935Z,27
2023-01-11T02:38:56.102Z,26
2023-01-11T02:40:05.731Z,28.5
2023-01-11T02:41:12.715Z,27
2023-01-11T02:42:22.499Z,27.5
2023-01-11T02:43:42.966Z,27.2
2023-01-11T02:45:05.431Z,28.3
2023-01-11T02:46:23.056Z,27.8
2023-01-11T02:47:35.286Z,30
2023-01-11T02:48:42.355Z,31.7
2023-01-11T02:49:57.807Z,31.6
2023-01-11T02:51:14.879Z,31
2023-01-11T02:52:22.018Z,30.3
2023-01-11T02:53:39.508Z,30
2023-01-11T02:54:48.979Z,31.8
2023-01-11T02:55:56.167Z,30.2
2023-01-11T02:57:03.359Z,34.3
2023-01-11T02:58:10.298Z,32.6
2023-01-11T02:59:16.939Z,31.2
2023-01-11T03:00:24.111Z,32.4
2023-01-11T03:01:31.351Z,32.4
2023-01-11T03:02:38.493Z,33
2023-01-11T03:03:45.534Z,31.5
2023-01-11T03:04:52.711Z,32.9
2023-01-11T03:05:59.771Z,30.6
2023-01-11T03:07:09.290Z,32.4
2023-01-11T03:08:26.706Z,31.6
2023-01-11T03:09:33.777Z,30
2023-01-11T03:10:45.615Z,30.7
2023-01-11T03:12:02.939Z,29.5
2023-01-11T03:13:20.085Z,30.4
2023-01-11T03:14:26.849Z,28.5
2023-01-11T03:15:44.204Z,28.2
2023-01-11T03:16:56.297Z,27.6
2023-01-11T03:18:08.593Z,32.3
2023-01-11T03:19:23.270Z,29.2
2023-01-11T03:20:37.978Z,32
2023-01-11T03:21:45.204Z,30.3
2023-01-11T03:22:59.963Z,33
2023-01-11T03:24:06.659Z,29.3
2023-01-11T03:25:21.891Z,29.1
2023-01-11T03:26:29.405Z,30
2023-01-11T03:27:38.678Z,30.8
2023-01-11T03:28:55.970Z,33.5
2023-01-11T03:30:08.261Z,32.8
2023-01-11T03:31:25.449Z,30.9
2023-01-11T03:32:37.651Z,31.6
2023-01-11T03:33:47.340Z,30
2023-01-11T03:34:59.595Z,31.6
2023-01-11T03:36:14.712Z,29.4
2023-01-11T03:37:29.982Z,31.4
2023-01-11T03:38:42.202Z,30.8
2023-01-11T03:39:49.383Z,30.8
2023-01-11T03:40:59.109Z,30.8
2023-01-11T03:42:06.211Z,30.3
2023-01-11T03:43:13.164Z,29.9
2023-01-11T03:44:20.282Z,31.1
2023-01-11T03:45:27.495Z,28.3
2023-01-11T03:46:34.666Z,30.2
2023-01-11T03:47:41.175Z,28
2023-01-11T03:48:48.076Z,27.9
2023-01-11T03:50:05.321Z,27.6
2023-01-11T03:51:12.787Z,28.7
2023-01-11T03:52:19.847Z,25.8
2023-01-11T03:53:27.022Z,26.4
2023-01-11T03:54:33.851Z,28.3
2023-01-11T03:55:40.787Z,27.9
2023-01-11T03:56:47.931Z,29.3
2023-01-11T03:58:02.722Z,30
2023-01-11T03:59:09.711Z,30.5
2023-01-11T04:00:16.862Z,30.9
2023-01-11T04:01:24.051Z,29.5
2023-01-11T04:02:31.225Z,29.9
2023-01-11T04:03:43.395Z,30.6
2023-01-11T04:04:50.102Z,30.5
2023-01-11T04:05:57.199Z,30.7
2023-01-11T04:07:04.711Z,29
2023-01-11T04:08:11.836Z,30.4
2023-01-11T04:09:19.016Z,29.4
2023-01-11T04:10:26.102Z,28.9
2023-01-11T04:11:32.766Z,30.8
2023-01-11T04:12:40.047Z,30.7
2023-01-11T04:13:47.163Z,30.2
2023-01-11T04:14:54.154Z,29.6
2023-01-11T04:16:00.900Z,29.2
2023-01-11T04:17:07.970Z,29.4
2023-01-11T04:18:14.991Z,29.2
2023-01-11T04:19:22.447Z,29.5
2023-01-11T04:20:29.318Z,29.4
2023-01-11T04:21:38.966Z,28.7
2023-01-11T04:22:46.118Z,29.9
2023-01-11T04:23:53.355Z,28.5
2023-01-11T04:25:00.438Z,29.1
2023-01-11T04:26:07.648Z,30.4
2023-01-11T04:27:14.660Z,28.4
2023-01-11T04:28:21.713Z,29
2023-01-11T04:29:28.905Z,27.6
2023-01-11T04:30:36.072Z,28.4
2023-01-11T04:31:42.756Z,30.1
2023-01-11T04:32:49.311Z,30.2
2023-01-11T04:33:56.599Z,29.4
2023-01-11T04:35:03.548Z,31
2023-01-11T04:36:10.482Z,29.9
2023-01-11T04:37:17.681Z,30
2023-01-11T04:38:24.450Z,31.1
2023-01-11T04:39:31.415Z,28.9
2023-01-11T04:40:38.547Z,29.2
2023-01-11T04:41:45.734Z,30.1
2023-01-11T04:42:57.932Z,27.6
2023-01-11T04:44:04.952Z,28.6
2023-01-11T04:45:12.038Z,29.4
2023-01-11T04:46:18.676Z,28.8
2023-01-11T04:47:25.859Z,27.8
2023-01-11T04:48:32.930Z,28.5
2023-01-11T04:49:42.678Z,28.1
2023-01-11T04:50:49.630Z,29.3
2023-01-11T04:51:56.426Z,28.9
2023-01-11T04:53:03.622Z,30.2
2023-01-11T04:54:10.550Z,28.7
2023-01-11T04:55:17.733Z,29.8
2023-01-11T04:56:24.324Z,30
2023-01-11T04:57:31.006Z,30.7
2023-01-11T04:58:38.399Z,31.3
2023-01-11T04:59:45.260Z,31.4
2023-01-11T05:00:51.980Z,31.3
2023-01-11T05:01:59.221Z,30.7
2023-01-11T05:03:06.178Z,32.4
2023-01-11T05:04:13.627Z,26.7
2023-01-11T05:05:20.497Z,27.9
2023-01-11T05:06:27.581Z,29.8
2023-01-11T05:07:34.786Z,29.9
2023-01-11T05:08:41.840Z,29.5
2023-01-11T05:09:48.507Z,28.8
2023-01-11T05:10:55.647Z,30.6
2023-01-11T05:12:02.802Z,30.5
2023-01-11T05:13:09.985Z,29.9
2023-01-11T05:14:17.069Z,32.5
2023-01-11T05:15:24.052Z,31.4
2023-01-11T05:16:30.747Z,31.4
2023-01-11T05:17:37.818Z,31.4
2023-01-11T05:18:44.921Z,32.3
2023-01-11T05:19:51.714Z,32.7
2023-01-11T05:20:58.774Z,31.4
2023-01-11T05:22:05.915Z,28.9
2023-01-11T05:23:12.877Z,31.9
2023-01-11T05:24:19.994Z,30.3
2023-01-11T05:25:27.249Z,30.7
2023-01-11T05:26:34.876Z,31
2023-01-11T05:27:41.546Z,30.5
2023-01-11T05:28:48.613Z,30.3
2023-01-11T05:29:55.279Z,31.1
2023-01-11T05:31:02.485Z,32
2023-01-11T05:32:09.694Z,32
2023-01-11T05:33:16.700Z,32.8
2023-01-11T05:34:23.627Z,30.9
2023-01-11T05:35:30.805Z,30.2
2023-01-11T05:36:37.447Z,30.3
2023-01-11T05:37:44.644Z,30.4
2023-01-11T05:38:51.763Z,28.6
2023-01-11T05:39:58.388Z,29.4
2023-01-11T05:41:05.524Z,28.9
2023-01-11T05:42:12.483Z,27.1
2023-01-11T05:43:19.211Z,28.2
2023-01-11T05:44:26.277Z,27.6
2023-01-11T05:45:38.470Z,28.3
2023-01-11T05:46:45.823Z,26
2023-01-11T05:47:52.733Z,28.4
2023-01-11T05:48:59.862Z,28
2023-01-11T05:50:07.104Z,28.6
2023-01-11T05:51:13.985Z,28.2
2023-01-11T05:52:21.229Z,28.2
2023-01-11T05:53:28.458Z,28.5
2023-01-11T05:54:35.398Z,27.6
2023-01-11T05:55:42.000Z,27.1
2023-01-11T05:56:56.762Z,29
2023-01-11T05:58:03.959Z,29.7
2023-01-11T05:59:10.869Z,28.1
2023-01-11T06:00:17.956Z,29.4
2023-01-11T06:01:25.108Z,27.9
2023-01-11T06:02:32.483Z,28.4
2023-01-11T06:03:39.369Z,29.1
2023-01-11T06:04:46.530Z,28.3
2023-01-11T06:05:53.629Z,29.3
2023-01-11T06:07:00.929Z,30.4
2023-01-11T06:08:07.632Z,30.9
2023-01-11T06:09:14.471Z,29.7
2023-01-11T06:10:21.488Z,30.6
2023-01-11T06:11:28.139Z,31.6
2023-01-11T06:12:35.264Z,29.9
2023-01-11T06:13:42.488Z,32.3
2023-01-11T06:14:49.643Z,30.9
2023-01-11T06:15:56.789Z,33.1
2023-01-11T06:17:09.117Z,33.3
2023-01-11T06:18:15.889Z,36.3
2023-01-11T06:19:22.516Z,36.3
2023-01-11T06:20:29.169Z,35.8
2023-01-11T06:21:36.421Z,35.1
2023-01-11T06:22:43.497Z,37.4
2023-01-11T06:23:51.076Z,36.1
2023-01-11T06:24:57.909Z,37.3
2023-01-11T06:26:05.013Z,37.9
2023-01-11T06:27:11.918Z,36.5
2023-01-11T06:28:18.996Z,36.8
2023-01-11T06:29:26.152Z,36
2023-01-11T06:30:32.786Z,38.1
2023-01-11T06:31:39.896Z,39.8
2023-01-11T06:32:47.119Z,36.8
2023-01-11T06:33:53.734Z,39.3
2023-01-11T06:35:00.920Z,38.8
2023-01-11T06:36:08.100Z,38.5
2023-01-11T06:37:15.167Z,38.3
2023-01-11T06:38:22.137Z,35.7
2023-01-11T06:39:29.331Z,37.4
2023-01-11T06:40:36.425Z,38
2023-01-11T06:41:43.634Z,35.4
2023-01-11T06:42:50.767Z,37.1
2023-01-11T06:43:57.977Z,35.7
2023-01-11T06:45:05.089Z,34.8
2023-01-11T06:46:12.760Z,33.9
2023-01-11T06:47:19.684Z,33.3
2023-01-11T06:48:26.820Z,34.1
2023-01-11T06:49:33.561Z,32.7
2023-01-11T06:50:40.624Z,34.9
2023-01-11T06:51:47.759Z,40.7
2023-01-11T06:52:54.965Z,44.3
2023-01-11T06:54:02.081Z,41.8
2023-01-11T06:55:09.277Z,38
2023-01-11T06:56:16.176Z,34.7
2023-01-11T06:57:23.274Z,34.1
2023-01-11T06:58:30.448Z,33
2023-01-11T06:59:37.608Z,34.4
2023-01-11T07:00:44.693Z,32.9
2023-01-11T07:01:51.775Z,34.8
2023-01-11T07:02:59.018Z,38
2023-01-11T07:04:06.175Z,43.7
2023-01-11T07:05:13.170Z,44.5
2023-01-11T07:06:20.320Z,47.9
2023-01-11T07:07:27.396Z,44
2023-01-11T07:08:34.557Z,35.2
2023-01-11T07:09:41.734Z,31.5
2023-01-11T07:10:48.336Z,31.7
2023-01-11T07:11:55.064Z,32.2
2023-01-11T07:13:02.108Z,31.6
2023-01-11T07:14:09.273Z,30
2023-01-11T07:15:16.424Z,32.2
2023-01-11T07:16:23.453Z,29.7
2023-01-11T07:17:30.089Z,30.4
2023-01-11T07:18:37.163Z,32.3
2023-01-11T07:19:44.362Z,32.7
2023-01-11T07:20:51.695Z,32.1
2023-01-11T07:21:58.573Z,32.2
2023-01-11T07:23:05.741Z,31.8
2023-01-11T07:24:12.772Z,33
2023-01-11T07:25:19.933Z,34.5
2023-01-11T07:26:27.121Z,33.6
2023-01-11T07:27:33.873Z,29.9
2023-01-11T07:28:40.784Z,29.2
2023-01-11T07:29:47.977Z,28.8
2023-01-11T07:30:59.486Z,29.6
2023-01-11T07:32:01.885Z,28.4
2023-01-11T07:33:09.069Z,27.8
2023-01-11T07:34:16.037Z,27.3
2023-01-11T07:35:23.119Z,27.7
2023-01-11T07:36:30.257Z,27.9
2023-01-11T07:37:37.334Z,27.9
2023-01-11T07:38:44.518Z,27.9
2023-01-11T07:39:51.665Z,27.9
2023-01-11T07:40:58.250Z,29.6
2023-01-11T07:42:04.960Z,26.6
2023-01-11T07:43:16.933Z,26
2023-01-11T07:44:23.585Z,26.9
2023-01-11T07:45:44.499Z,28.6
2023-01-11T07:46:38.069Z,28.8
2023-01-11T07:47:45.210Z,27.7
2023-01-11T07:48:55.181Z,27.8
2023-01-11T07:50:01.916Z,28.8
2023-01-11T07:51:08.949Z,29.1
2023-01-11T07:52:16.010Z,28.7
2023-01-11T07:53:23.141Z,27
2023-01-11T07:54:30.281Z,28.7
2023-01-11T07:55:37.110Z,30
2023-01-11T07:56:44.125Z,28.1
2023-01-11T07:57:51.221Z,28.4
2023-01-11T07:59:00.806Z,29.2
2023-01-11T08:00:07.453Z,28.2
2023-01-11T08:01:14.997Z,27.9
2023-01-11T08:02:21.693Z,29.7
2023-01-11T08:03:28.874Z,28.3
2023-01-11T08:04:35.874Z,28
2023-01-11T08:05:42.562Z,30.9
2023-01-11T08:06:52.329Z,27.6
2023-01-11T08:07:59.362Z,27.7
2023-01-11T08:09:06.552Z,29.3
2023-01-11T08:10:13.776Z,28.9
2023-01-11T08:11:20.837Z,28.9
2023-01-11T08:12:33.059Z,29.3
2023-01-11T08:13:45.293Z,27.2
2023-01-11T08:14:57.493Z,28.4
2023-01-11T08:16:04.701Z,29.4
2023-01-11T08:17:11.659Z,30
2023-01-11T08:18:18.917Z,29.1
2023-01-11T08:19:25.863Z,30.4
2023-01-11T08:20:33.036Z,27.3
2023-01-11T08:21:40.194Z,30.3
2023-01-11T08:22:47.272Z,30.3
2023-01-11T08:23:54.503Z,30.1
2023-01-11T08:25:01.624Z,31.7
2023-01-11T08:26:08.804Z,30.5
2023-01-11T08:27:15.749Z,32.3
2023-01-11T08:28:22.892Z,32.1
2023-01-11T08:29:29.977Z,31.8
2023-01-11T08:30:36.655Z,30.4
2023-01-11T08:31:43.806Z,30.4
2023-01-11T08:32:50.944Z,30.4
2023-01-11T08:33:57.924Z,29.2
2023-01-11T08:35:04.665Z,32
2023-01-11T08:36:11.693Z,29.4
2023-01-11T08:37:18.934Z,29.1
2023-01-11T08:38:25.871Z,27.7
2023-01-11T08:39:32.984Z,27.9
2023-01-11T08:40:40.150Z,26.6
2023-01-11T08:41:46.783Z,27.4
2023-01-11T08:42:53.701Z,26.8
2023-01-11T08:44:00.657Z,24.9
2023-01-11T08:45:07.337Z,24.6
2023-01-11T08:46:14.366Z,26.6
2023-01-11T08:47:21.394Z,24.6
2023-01-11T08:48:28.630Z,24.4
2023-01-11T08:49:35.794Z,27.3
2023-01-11T08:50:42.741Z,25.7
2023-01-11T08:51:49.485Z,24.9
2023-01-11T08:52:56.617Z,28.5
2023-01-11T08:54:03.762Z,29.8
2023-01-11T08:55:13.731Z,28.8
2023-01-11T08:56:20.992Z,26.2
2023-01-11T08:57:28.065Z,24.3
2023-01-11T08:58:35.133Z,24.7
2023-01-11T08:59:42.225Z,24.3
2023-01-11T09:00:49.444Z,24
2023-01-11T09:01:56.643Z,24
2023-01-11T09:03:03.451Z,22.9
2023-01-11T09:04:23.699Z,25.1
2023-01-11T09:05:18.330Z,24
2023-01-11T09:06:23.990Z,24.7
2023-01-11T09:07:31.144Z,25.2
2023-01-11T09:08:38.253Z,28.8
2023-01-11T09:09:45.186Z,28.6
2023-01-11T09:10:51.945Z,28.7
2023-01-11T09:12:01.655Z,27.4
2023-01-11T09:13:08.798Z,25.8
2023-01-11T09:14:15.883Z,27.5
2023-01-11T09:15:22.528Z,26.1
2023-01-11T09:16:29.767Z,25.7
2023-01-11T09:17:36.841Z,26.5
2023-01-11T09:18:43.975Z,26.7
2023-01-11T09:19:50.989Z,25.4
2023-01-11T09:20:57.728Z,25.1
2023-01-11T09:22:04.911Z,25.4
2023-01-11T09:23:11.901Z,26.1
2023-01-11T09:24:18.905Z,25.5
2023-01-11T09:25:26.092Z,25.4
2023-01-11T09:26:32.821Z,23
2023-01-11T09:27:39.994Z,24
2023-01-11T09:28:47.037Z,24.1
2023-01-11T09:29:54.188Z,23.6
2023-01-11T09:31:00.854Z,22.5
2023-01-11T09:32:08.032Z,22.2
2023-01-11T09:33:14.903Z,22
2023-01-11T09:34:21.683Z,25.4
2023-01-11T09:35:28.969Z,23.6
2023-01-11T09:36:35.931Z,24.9
2023-01-11T09:37:42.970Z,24.2
2023-01-11T09:38:52.680Z,25.5
2023-01-11T09:39:59.735Z,23.3
2023-01-11T09:41:06.862Z,21.8
2023-01-11T09:42:24.125Z,23.3
2023-01-11T09:43:34.306Z,20.3
2023-01-11T09:44:41.445Z,20
2023-01-11T09:45:51.623Z,22
2023-01-11T09:46:58.291Z,22.5
2023-01-11T09:48:12.996Z,20.2
2023-01-11T09:49:25.420Z,21.1
2023-01-11T09:50:32.317Z,20.8
2023-01-11T09:51:45.085Z,21
2023-01-11T09:52:52.211Z,19.7
2023-01-11T09:54:01.955Z,20.4
2023-01-11T09:55:09.094Z,22.1
2023-01-11T09:56:19.086Z,20.8
2023-01-11T09:57:28.699Z,20
2023-01-11T09:58:44.001Z,17.6
2023-01-11T09:59:53.697Z,20.1
2023-01-11T10:01:06.525Z,19.6
2023-01-11T10:02:23.668Z,17.9
2023-01-11T10:03:35.945Z,18.5
2023-01-11T10:04:48.167Z,18.1
2023-01-11T10:06:02.763Z,16.3
2023-01-11T10:07:19.994Z,17.1
2023-01-11T10:18:24.934Z,15.6
2023-01-11T10:18:25.246Z,15
2023-01-11T10:18:34.770Z,14.2
2023-01-11T10:18:34.929Z,15.6
2023-01-11T10:19:38.420Z,14.6
2023-01-11T10:20:36.984Z,14.8
2023-01-11T10:21:44.060Z,14.2
2023-01-11T10:22:56.855Z,14.3
2023-01-11T10:24:09.126Z,14.1
2023-01-11T10:25:24.166Z,14.2
2023-01-11T10:26:36.434Z,15.2
2023-01-11T10:27:43.549Z,14.6
2023-01-11T10:28:55.865Z,15.1
2023-01-11T10:30:13.042Z,13.1
2023-01-11T10:31:20.202Z,12.3
2023-01-11T10:32:29.849Z,13.5
2023-01-11T10:33:45.168Z,14.2
2023-01-11T10:34:52.330Z,13.5
2023-01-11T10:36:04.566Z,12.1
2023-01-11T10:37:19.570Z,11.9
2023-01-11T10:38:34.446Z,12.2
2023-01-11T10:39:49.238Z,12.5
2023-01-11T10:41:09.602Z,12.2
2023-01-11T10:42:19.251Z,15
2023-01-11T10:43:26.381Z,12.5
2023-01-11T10:44:33.448Z,13.2
2023-01-11T10:45:45.808Z,13.3
2023-01-11T10:46:55.435Z,12
2023-01-11T10:48:02.596Z,12.4
2023-01-11T10:49:09.597Z,11.2
2023-01-11T10:50:26.831Z,12.5
2023-01-11T10:51:36.518Z,11.9
2023-01-11T10:52:43.694Z,11.9
2023-01-11T10:53:53.387Z,12.1
2023-01-11T10:55:10.715Z,13.3
2023-01-11T10:56:17.719Z,11.6
2023-01-11T10:57:27.333Z,10.9
2023-01-11T10:58:39.633Z,10.9
2023-01-11T10:59:49.218Z,11.4
2023-01-11T11:01:06.756Z,9.1
2023-01-11T11:02:22.697Z,8.1
2023-01-11T11:03:34.134Z,8.5
2023-01-11T11:04:46.382Z,8.6
2023-01-11T11:05:58.623Z,7.9
2023-01-11T11:07:05.789Z,9.3
2023-01-11T11:08:14.586Z,8.4
2023-01-11T11:09:19.834Z,9
2023-01-11T11:10:27.003Z,7.8
2023-01-11T11:11:39.301Z,7.9
2023-01-11T11:12:45.906Z,7.7
2023-01-11T11:13:58.176Z,7.8
2023-01-11T11:15:05.286Z,8.5
2023-01-11T11:16:12.359Z,7.9
2023-01-11T11:17:27.101Z,8.3
2023-01-11T11:18:34.218Z,8.4
2023-01-11T11:19:41.960Z,8.5
2023-01-11T11:20:48.056Z,8.1
2023-01-11T11:21:55.256Z,7.8
2023-01-11T11:23:01.901Z,8.2
2023-01-11T11:24:09.001Z,8.8
2023-01-11T11:25:26.158Z,8.3
2023-01-11T11:26:35.839Z,8.3
2023-01-11T11:27:42.484Z,7.7
2023-01-11T11:28:55.774Z,7.5
2023-01-11T11:30:03.106Z,8.2
2023-01-11T11:31:10.596Z,6.9
2023-01-11T11:32:17.461Z,9.2
2023-01-11T11:33:32.246Z,7.1
2023-01-11T11:34:39.534Z,6.6
2023-01-11T11:35:52.597Z,5.5
2023-01-11T11:37:02.343Z,4.7
2023-01-11T11:38:09.525Z,5
2023-01-11T11:39:24.202Z,4.9
2023-01-11T11:40:31.323Z,4.6
2023-01-11T11:41:38.533Z,4.6
2023-01-11T11:42:48.203Z,4.3
2023-01-11T11:43:55.296Z,4.7
2023-01-11T11:45:05.148Z,4.5
2023-01-11T11:46:15.567Z,4.4
2023-01-11T11:47:19.239Z,3.7
2023-01-11T11:48:26.285Z,4.3
2023-01-11T11:49:32.921Z,4.3
2023-01-11T11:50:45.327Z,4
2023-01-11T11:51:47.249Z,4.2
2023-01-11T11:52:54.312Z,4.1
2023-01-11T11:54:04.059Z,4.4
2023-01-11T11:55:11.088Z,5
2023-01-11T11:56:18.189Z,4.5
2023-01-11T11:57:32.940Z,5
2023-01-11T11:58:40.077Z,5.3
2023-01-11T11:59:47.204Z,5.2
2023-01-11T12:00:54.370Z,5.6
2023-01-11T12:02:01.513Z,5.6
2023-01-11T12:03:08.674Z,5.8
2023-01-11T12:04:18.171Z,5.6
2023-01-11T12:05:27.926Z,6.6
2023-01-11T12:06:34.965Z,5.6
2023-01-11T12:07:53.816Z,6
2023-01-11T12:08:48.740Z,5.4
2023-01-11T12:09:55.849Z,5
2023-01-11T12:11:03.055Z,4.7
2023-01-11T12:12:10.125Z,4.8
2023-01-11T12:13:22.852Z,4.9
2023-01-11T12:14:30.043Z,5.4
2023-01-11T12:15:37.052Z,5.3
2023-01-11T12:16:44.303Z,5.2
2023-01-11T12:17:51.353Z,5.2
2023-01-11T12:18:58.428Z,4.9
2023-01-11T12:20:05.234Z,5.6
2023-01-11T12:21:22.882Z,5.1
2023-01-11T12:22:29.933Z,5.1
2023-01-11T12:23:36.582Z,5.3
2023-01-11T12:24:43.808Z,4.9
2023-01-11T12:25:50.886Z,5.5
2023-01-11T12:27:03.170Z,5.4
2023-01-11T12:28:18.240Z,5.9
2023-01-11T12:29:27.941Z,5.4
2023-01-11T12:30:37.634Z,5.5
2023-01-11T12:31:49.865Z,5.5
2023-01-11T12:33:02.083Z,5.8
2023-01-11T12:34:19.373Z,5.6
2023-01-11T12:35:36.732Z,5.7
2023-01-11T12:36:54.005Z,5.2
2023-01-11T12:38:06.274Z,4.8
2023-01-11T12:39:23.481Z,4.7
2023-01-11T12:40:33.182Z,4.5
2023-01-11T12:41:45.426Z,4.5
2023-01-11T12:42:57.524Z,4.6
2023-01-11T12:44:09.798Z,5.1
2023-01-11T12:45:22.051Z,4.7
2023-01-11T12:46:34.149Z,4.4
2023-01-11T12:47:46.416Z,4.6
2023-01-11T12:49:03.741Z,5.2
2023-01-11T12:50:16.881Z,4
2023-01-11T12:51:24.179Z,4.5
2023-01-11T12:52:41.367Z,5.4
2023-01-11T12:53:53.655Z,5.2
2023-01-11T12:55:08.921Z,6.5
2023-01-11T12:56:21.022Z,6.5
2023-01-11T12:57:30.700Z,5.6
2023-01-11T12:58:45.441Z,5.4
2023-01-11T12:59:55.268Z,5.6
2023-01-11T13:01:07.479Z,5.6
2023-01-11T13:02:22.558Z,5.7
2023-01-11T13:03:39.885Z,5.8
2023-01-11T13:04:52.108Z,5.9
2023-01-11T13:06:04.883Z,6
2023-01-11T13:07:14.396Z,6.5
2023-01-11T13:08:29.157Z,6.3
2023-01-11T13:09:46.472Z,6.9
2023-01-11T13:11:03.835Z,6.6
2023-01-11T13:12:21.071Z,6.6
2023-01-11T13:13:33.198Z,7.1
2023-01-11T13:14:48.184Z,7.1
2023-01-11T13:15:55.180Z,7.3
2023-01-11T13:17:02.334Z,6.8
2023-01-11T13:18:19.508Z,7.4
2023-01-11T13:19:26.644Z,7.2
2023-01-11T13:20:53.692Z,8
2023-01-11T13:21:52.116Z,7.8
2023-01-11T13:22:59.162Z,7.8
2023-01-11T13:24:11.465Z,8.4
2023-01-11T13:25:18.531Z,7.9
2023-01-11T13:26:28.231Z,7.6
2023-01-11T13:27:35.548Z,7.5
2023-01-11T13:28:42.417Z,8.5
2023-01-11T13:29:49.172Z,9.4
2023-01-11T13:30:58.840Z,8.7
2023-01-11T13:32:05.904Z,8.3
2023-01-11T13:33:18.124Z,7.1
2023-01-11T13:34:25.233Z,6.7
2023-01-11T13:35:37.426Z,7
2023-01-11T13:36:44.066Z,7.3
2023-01-11T13:37:50.711Z,6.8
2023-01-11T13:39:00.388Z,6.8
2023-01-11T13:40:12.481Z,6.7
2023-01-11T13:41:22.166Z,7
2023-01-11T13:42:29.352Z,6
2023-01-11T13:43:42.008Z,6.1
2023-01-11T13:44:56.827Z,6.2
2023-01-11T13:46:07.054Z,5.8
2023-01-11T13:47:16.572Z,5.2
2023-01-11T13:48:33.947Z,5.6
2023-01-11T13:49:40.765Z,6
2023-01-11T13:50:55.917Z,6.2
2023-01-11T13:52:02.953Z,5.3
2023-01-11T13:53:17.669Z,5.5
2023-01-11T13:54:32.792Z,6.9
2023-01-11T13:55:44.705Z,6.1
2023-01-11T13:57:01.967Z,6.1
2023-01-11T13:58:09.090Z,6.3
2023-01-11T13:59:18.762Z,5.8
2023-01-11T14:00:30.994Z,5.9
2023-01-11T14:01:46.390Z,6.3
2023-01-11T14:02:56.379Z,6.1
2023-01-11T14:04:06.057Z,6.4
2023-01-11T14:05:20.784Z,6.2
2023-01-11T14:06:27.446Z,6.1
2023-01-11T14:07:44.691Z,7
2023-01-11T14:09:02.079Z,6.5
2023-01-11T14:10:17.363Z,6.9
2023-01-11T14:11:29.559Z,8.3
2023-01-11T14:12:39.145Z,8.2
2023-01-11T14:13:51.536Z,8.1
2023-01-11T14:15:11.741Z,9.6
2023-01-11T14:16:26.920Z,9.2
2023-01-11T14:17:44.406Z,8.7
2023-01-11T14:19:02.162Z,9.2
2023-01-11T14:20:11.343Z,10
2023-01-11T14:21:23.975Z,10.2
2023-01-11T14:22:36.199Z,10.1
2023-01-11T14:23:53.553Z,8.8
2023-01-11T14:25:00.564Z,8.7
2023-01-11T14:26:15.251Z,8.5
2023-01-11T14:27:32.563Z,8.7
2023-01-11T14:28:50.076Z,9.1
2023-01-11T14:30:05.147Z,9
2023-01-11T14:31:17.437Z,9.2
2023-01-11T14:32:34.639Z,8.7
2023-01-11T14:33:46.890Z,9
2023-01-11T14:34:59.171Z,7.8
2023-01-11T14:36:14.296Z,9
2023-01-11T14:37:29.620Z,9.4
2023-01-11T14:38:41.815Z,10.7
2023-01-11T14:39:54.201Z,9
2023-01-11T14:41:06.250Z,11.3
2023-01-11T14:42:30.700Z,11.5
2023-01-11T14:43:33.753Z,10
2023-01-11T14:44:51.127Z,9.8
2023-01-11T14:46:03.391Z,9.8
2023-01-11T14:47:13.365Z,10.5
2023-01-11T14:48:28.153Z,11.1
2023-01-11T14:49:35.215Z,10.3
2023-01-11T14:50:52.668Z,10.4
2023-01-11T14:52:07.842Z,10.7
2023-01-11T14:53:17.944Z,10.8
2023-01-11T14:54:24.645Z,11.4
2023-01-11T14:55:37.263Z,11.3
2023-01-11T14:56:43.932Z,10.6
2023-01-11T14:57:56.261Z,11
2023-01-11T14:59:03.244Z,11.4
2023-01-11T15:00:10.525Z,11.5
2023-01-11T15:01:22.650Z,11.3
2023-01-11T15:02:29.398Z,12.2
2023-01-11T15:03:36.382Z,13.5
2023-01-11T15:04:46.152Z,13.5
2023-01-11T15:05:56.219Z,14.4
2023-01-11T15:07:05.899Z,13.9
2023-01-11T15:08:20.634Z,13.8
2023-01-11T15:09:27.601Z,14.8
2023-01-11T15:10:45.085Z,14.8
2023-01-11T15:12:02.354Z,15.7
2023-01-11T15:13:14.505Z,15.8
2023-01-11T15:14:29.235Z,14.5
2023-01-11T15:15:35.939Z,14.9
2023-01-11T15:16:48.145Z,15.6
2023-01-11T15:18:00.543Z,15.9
2023-01-11T15:19:12.533Z,15.9
2023-01-11T15:20:29.862Z,15.7
2023-01-11T15:21:36.909Z,14.9
2023-01-11T15:22:44.185Z,15
2023-01-11T15:23:51.492Z,15.4
2023-01-11T15:24:58.448Z,15.1
2023-01-11T15:26:05.542Z,15.6
2023-01-11T15:27:12.650Z,15.3
2023-01-11T15:28:24.945Z,15.5
2023-01-11T15:29:40.160Z,14.1
2023-01-11T15:30:50.232Z,15.3
2023-01-11T15:32:02.549Z,15.1
2023-01-11T15:33:14.833Z,14.2
2023-01-11T15:34:21.714Z,14.1
2023-01-11T15:35:31.910Z,15.8
2023-01-11T15:36:39.202Z,13.6
2023-01-11T15:37:53.945Z,13
2023-01-11T15:39:06.799Z,12.2
2023-01-11T15:40:13.560Z,13.2